KHUF/HUF METAR and TAF weather

Enter ICAO airport designator
Station Type Date Time Source
KHUF METAR 2020/01/22 11:53 UTC NOAA

KHUF 221153Z 14003KT 10SM CLR M06/M08 A3036 RMK AO2 SLP290 T10611083 11050 21061 56009


Station Type Date Time Source
KHUF Decoded METAR 2020/01/22 11:53 UTC NOAA

TERRE HAUTE INTERNATIONAL -HULMAN FLD, IN, United States (KHUF) 39-27N 087-19W 179M
Jan 22, 2020 - 06:53 AM EST / 2020.01.22 1153 UTC
Wind: from the SE (140 degrees) at 3 MPH (3 KT):0
Visibility: 10 mile(s):0
Sky conditions: clear
Temperature: 21.0 F (-6.1 C)
Dew Point: 17.1 F (-8.3 C)
Relative Humidity: 84%
Pressure (altimeter): 30.36 in. Hg (1028 hPa)
Pressure tendency: 0.03 inches (0.9 hPa) lower than three hours ago
ob: KHUF 221153Z 14003KT 10SM CLR M06/M08 A3036 RMK AO2 SLP290 T10611083 11050 21061 56009
cycle: 12

Station Type Date Time Source
KHUF TAF 2020/01/22 12:22 UTC NOAA

TAF KHUF 221120Z 2212/2312 16005KT P6SM SCT250

Example: see airport list